createdAt,value
2022-09-15T00:01:57.041Z,21.00
2022-09-15T00:04:43.930Z,20.82
2022-09-15T00:07:31.615Z,20.87
2022-09-15T00:10:18.797Z,20.98
2022-09-15T00:13:05.842Z,21.05
2022-09-15T00:15:53.248Z,21.00
2022-09-15T00:18:40.603Z,21.01
2022-09-15T00:21:31.049Z,21.01
2022-09-15T00:24:18.255Z,20.95
2022-09-15T00:27:05.158Z,20.77
2022-09-15T00:29:52.393Z,20.66
2022-09-15T00:32:39.334Z,20.71
2022-09-15T00:35:26.312Z,20.87
2022-09-15T00:38:14.440Z,20.85
2022-09-15T00:41:02.495Z,20.86
2022-09-15T00:44:00.095Z,20.94
2022-09-15T00:47:15.238Z,20.54
2022-09-15T00:50:07.566Z,20.55
2022-09-15T00:53:01.983Z,20.56
2022-09-15T00:55:50.635Z,20.64
2022-09-15T00:58:47.896Z,20.47
2022-09-15T01:01:35.724Z,20.64
2022-09-15T01:04:22.796Z,20.46
2022-09-15T01:07:14.984Z,20.64
2022-09-15T01:10:12.287Z,20.71
2022-09-15T01:13:02.937Z,20.86
2022-09-15T01:15:54.791Z,20.70
2022-09-15T01:22:00.359Z,20.72
2022-09-15T01:25:08.930Z,20.53
2022-09-15T01:28:10.687Z,20.75
2022-09-15T01:31:15.937Z,20.64
2022-09-15T01:34:09.026Z,20.82
2022-09-15T01:37:06.179Z,20.69
2022-09-15T01:39:54.526Z,20.37
2022-09-15T01:42:44.054Z,20.46
2022-09-15T01:45:34.038Z,20.45
2022-09-15T01:48:24.652Z,20.43
2022-09-15T01:51:11.802Z,20.42
2022-09-15T01:54:01.995Z,20.31
2022-09-15T01:56:49.144Z,20.15
2022-09-15T01:59:36.068Z,20.05
2022-09-15T02:02:29.567Z,20.03
2022-09-15T02:05:30.218Z,20.04
2022-09-15T02:08:40.130Z,19.92
2022-09-15T02:11:29.030Z,20.00
2022-09-15T02:18:22.815Z,19.92
2022-09-15T02:21:19.002Z,19.94
2022-09-15T02:24:12.195Z,20.16
2022-09-15T02:27:01.178Z,20.06
2022-09-15T02:29:49.278Z,20.01
2022-09-15T02:32:38.534Z,19.87
2022-09-15T02:35:26.977Z,19.96
2022-09-15T02:38:15.194Z,19.95
2022-09-15T02:41:02.830Z,20.05
2022-09-15T02:43:50.966Z,19.93
2022-09-15T02:46:39.346Z,19.87
2022-09-15T02:49:26.412Z,19.85
2022-09-15T02:52:13.771Z,19.68
2022-09-15T02:55:01.009Z,19.84
2022-09-15T02:57:48.300Z,19.79
2022-09-15T03:00:35.254Z,20.06
2022-09-15T03:03:22.351Z,20.04
2022-09-15T03:06:19.939Z,20.05
2022-09-15T03:09:08.355Z,20.03
2022-09-15T03:11:55.239Z,20.08
2022-09-15T03:14:42.260Z,19.78
2022-09-15T03:17:29.129Z,19.92
2022-09-15T03:20:19.422Z,19.86
2022-09-15T03:23:06.269Z,19.82
2022-09-15T03:25:53.335Z,19.77
2022-09-15T03:28:40.534Z,19.59
2022-09-15T03:31:27.880Z,19.63
2022-09-15T03:34:14.805Z,19.53
2022-09-15T03:37:01.894Z,19.57
2022-09-15T03:39:49.094Z,19.72
2022-09-15T03:42:36.087Z,19.80
2022-09-15T03:45:23.022Z,19.92
2022-09-15T03:48:10.181Z,19.65
2022-09-15T03:50:57.129Z,19.80
2022-09-15T03:53:44.342Z,19.77
2022-09-15T03:56:33.023Z,19.74
2022-09-15T03:59:21.010Z,19.66
2022-09-15T04:02:08.307Z,19.73
2022-09-15T04:04:55.475Z,19.80
2022-09-15T04:07:42.359Z,19.64
2022-09-15T04:10:29.443Z,19.42
2022-09-15T04:13:16.313Z,19.62
2022-09-15T04:16:15.370Z,19.60
2022-09-15T04:19:02.435Z,19.59
2022-09-15T04:21:49.475Z,19.50
2022-09-15T04:24:36.435Z,19.47
2022-09-15T04:27:23.542Z,19.39
2022-09-15T04:30:10.811Z,19.43
2022-09-15T04:32:57.795Z,19.61
2022-09-15T04:35:44.676Z,19.60
2022-09-15T04:38:31.885Z,19.59
2022-09-15T04:41:19.570Z,19.56
2022-09-15T04:44:06.545Z,19.42
2022-09-15T04:46:54.698Z,19.38
2022-09-15T04:49:41.718Z,19.57
2022-09-15T04:52:28.592Z,19.62
2022-09-15T04:55:15.639Z,19.60
2022-09-15T04:58:03.175Z,19.66
2022-09-15T05:00:50.295Z,19.49
2022-09-15T05:03:38.466Z,19.49
2022-09-15T05:06:27.494Z,19.41
2022-09-15T05:09:14.503Z,19.43
2022-09-15T05:12:01.698Z,19.30
2022-09-15T05:14:48.559Z,19.31
2022-09-15T05:17:35.648Z,19.47
2022-09-15T05:20:22.750Z,19.60
2022-09-15T05:23:10.779Z,19.83
2022-09-15T05:25:58.737Z,19.84
2022-09-15T05:28:48.078Z,19.79
2022-09-15T05:31:35.220Z,19.70
2022-09-15T05:34:22.266Z,19.60
2022-09-15T05:37:10.374Z,19.50
2022-09-15T05:39:59.689Z,19.73
2022-09-15T05:42:46.552Z,19.83
2022-09-15T05:45:33.701Z,19.70
2022-09-15T05:48:20.638Z,19.82
2022-09-15T05:51:08.161Z,19.78
2022-09-15T05:53:55.098Z,19.73
2022-09-15T05:56:42.226Z,19.84
2022-09-15T05:59:29.169Z,19.98
2022-09-15T06:02:16.277Z,19.71
2022-09-15T06:05:03.582Z,20.00
2022-09-15T06:07:54.073Z,20.06
2022-09-15T06:10:40.966Z,20.06
2022-09-15T06:13:28.006Z,20.01
2022-09-15T06:16:20.152Z,20.17
2022-09-15T06:19:07.317Z,20.41
2022-09-15T06:21:54.244Z,20.39
2022-09-15T06:24:41.484Z,20.17
2022-09-15T06:27:28.331Z,20.04
2022-09-15T06:30:15.660Z,20.27
2022-09-15T06:33:02.571Z,20.48
2022-09-15T06:35:50.012Z,20.54
2022-09-15T06:38:37.507Z,20.51
2022-09-15T06:41:24.701Z,20.49
2022-09-15T06:44:11.639Z,20.68
2022-09-15T06:46:58.779Z,20.64
2022-09-15T06:49:45.794Z,20.74
2022-09-15T06:52:32.935Z,20.82
2022-09-15T06:55:19.861Z,20.84
2022-09-15T06:58:06.884Z,20.79
2022-09-15T07:00:53.787Z,20.83
2022-09-15T07:03:43.665Z,20.79
2022-09-15T07:06:32.847Z,20.69
2022-09-15T07:09:19.859Z,20.73
2022-09-15T07:12:07.092Z,20.54
2022-09-15T07:14:54.225Z,20.60
2022-09-15T07:17:41.095Z,20.61
2022-09-15T07:20:28.159Z,20.95
2022-09-15T07:23:15.305Z,21.06
2022-09-15T07:26:14.757Z,21.43
2022-09-15T07:29:04.817Z,21.55
2022-09-15T07:31:52.220Z,21.75
2022-09-15T07:34:39.099Z,21.72
2022-09-15T07:37:26.231Z,21.64
2022-09-15T07:40:13.419Z,21.64
2022-09-15T07:43:00.502Z,21.84
2022-09-15T07:45:47.473Z,21.77
2022-09-15T07:48:34.633Z,21.84
2022-09-15T07:51:21.579Z,22.14
2022-09-15T07:54:08.791Z,22.14
2022-09-15T07:56:55.660Z,22.24
2022-09-15T07:59:42.699Z,22.38
2022-09-15T08:02:29.784Z,22.54
2022-09-15T08:05:16.898Z,22.44
2022-09-15T08:08:04.022Z,22.36
2022-09-15T08:10:50.977Z,22.22
2022-09-15T08:13:38.073Z,22.34
2022-09-15T08:16:25.250Z,22.55
2022-09-15T08:19:12.251Z,22.72
2022-09-15T08:21:59.595Z,22.84
2022-09-15T08:24:46.487Z,22.58
2022-09-15T08:27:33.557Z,22.54
2022-09-15T08:30:21.350Z,22.67
2022-09-15T08:33:08.334Z,22.85
2022-09-15T08:36:00.125Z,22.65
2022-09-15T08:38:47.509Z,22.83
2022-09-15T08:41:41.600Z,22.52
2022-09-15T08:44:47.105Z,22.90
2022-09-15T08:47:43.170Z,23.02
2022-09-15T08:50:40.985Z,23.02
2022-09-15T08:53:43.419Z,23.23
2022-09-15T08:56:30.720Z,23.27
2022-09-15T08:59:19.590Z,23.42
2022-09-15T09:02:12.558Z,23.37
2022-09-15T09:05:02.094Z,23.55
2022-09-15T09:08:09.698Z,23.60
2022-09-15T09:11:18.861Z,23.54
2022-09-15T09:14:50.138Z,23.54
2022-09-15T09:18:11.997Z,23.71
2022-09-15T09:21:13.208Z,23.97
2022-09-15T09:24:03.395Z,24.02
2022-09-15T09:26:54.548Z,23.90
2022-09-15T09:29:49.993Z,24.01
2022-09-15T09:32:46.211Z,23.90
2022-09-15T09:35:45.061Z,23.98
2022-09-15T09:38:36.330Z,23.81
2022-09-15T09:41:35.804Z,23.89
2022-09-15T09:44:32.046Z,23.90
2022-09-15T09:47:20.053Z,23.98
2022-09-15T09:50:43.316Z,24.09
2022-09-15T09:53:33.670Z,24.23
2022-09-15T09:56:25.930Z,24.46
2022-09-15T09:59:31.272Z,24.67
2022-09-15T10:02:24.947Z,24.76
2022-09-15T10:05:19.450Z,24.67
2022-09-15T10:08:06.915Z,24.70
2022-09-15T10:10:56.274Z,24.66
2022-09-15T10:13:54.675Z,24.66
2022-09-15T10:16:41.955Z,24.84
2022-09-15T10:19:32.237Z,24.97
2022-09-15T10:22:28.418Z,24.99
2022-09-15T10:25:21.376Z,25.05
2022-09-15T10:28:16.138Z,25.04
2022-09-15T10:31:11.413Z,25.29
2022-09-15T10:33:58.367Z,25.23
2022-09-15T10:36:45.956Z,25.33
2022-09-15T10:39:48.493Z,25.33
2022-09-15T10:42:47.276Z,25.27
2022-09-15T10:45:39.821Z,25.72
2022-09-15T10:48:31.945Z,25.52
2022-09-15T10:51:34.117Z,25.43
2022-09-15T10:54:58.688Z,25.79
2022-09-15T10:58:00.140Z,25.91
2022-09-15T11:01:02.234Z,25.82
2022-09-15T11:04:07.049Z,25.67
2022-09-15T11:07:19.588Z,25.96
2022-09-15T11:10:21.193Z,26.09
2022-09-15T11:13:30.844Z,25.90
2022-09-15T11:16:34.108Z,25.76
2022-09-15T11:19:36.109Z,25.72
2022-09-15T11:22:31.089Z,25.54
2022-09-15T11:25:23.174Z,25.53
2022-09-15T11:28:49.213Z,25.45
2022-09-15T11:31:43.084Z,25.33
2022-09-15T11:34:49.071Z,25.25
2022-09-15T11:37:43.580Z,25.46
2022-09-15T11:40:42.475Z,25.66
2022-09-15T11:43:52.442Z,25.86
2022-09-15T11:47:05.265Z,25.96
2022-09-15T11:50:02.000Z,26.09
2022-09-15T11:53:00.763Z,26.14
2022-09-15T11:55:53.924Z,26.34
2022-09-15T11:59:02.150Z,26.39
2022-09-15T12:02:19.830Z,26.29
2022-09-15T12:05:17.877Z,26.55
2022-09-15T12:08:16.917Z,26.78
2022-09-15T12:11:09.388Z,26.86
2022-09-15T12:13:57.269Z,26.68
2022-09-15T12:16:45.059Z,26.53
2022-09-15T12:19:48.889Z,26.63
2022-09-15T12:22:52.174Z,26.75
2022-09-15T12:25:55.768Z,26.73
2022-09-15T12:28:57.295Z,26.82
2022-09-15T12:31:45.326Z,26.87
2022-09-15T12:34:38.415Z,26.83
2022-09-15T12:37:29.765Z,26.79
2022-09-15T12:40:34.915Z,26.84
2022-09-15T12:43:23.643Z,26.47
2022-09-15T12:46:17.909Z,26.41
2022-09-15T12:49:05.020Z,26.42
2022-09-15T12:51:52.561Z,26.32
2022-09-15T12:54:43.175Z,26.28
2022-09-15T12:57:36.424Z,26.29
2022-09-15T13:00:34.235Z,26.38
2022-09-15T13:06:34.612Z,26.33
2022-09-15T13:09:28.741Z,26.16
2022-09-15T13:12:17.838Z,26.12
2022-09-15T13:15:07.791Z,25.40
2022-09-15T13:17:56.144Z,23.90
2022-09-15T13:20:54.029Z,23.34
2022-09-15T13:23:43.854Z,22.93
2022-09-15T13:26:32.099Z,22.22
2022-09-15T13:29:23.269Z,22.17
2022-09-15T13:32:32.626Z,21.93
2022-09-15T13:36:01.839Z,21.79
2022-09-15T13:39:15.802Z,21.85
2022-09-15T13:42:14.627Z,21.72
2022-09-15T13:45:29.459Z,21.41
2022-09-15T13:48:42.897Z,21.48
2022-09-15T13:51:31.453Z,21.69
2022-09-15T13:54:19.625Z,21.50
2022-09-15T13:57:08.220Z,21.59
2022-09-15T13:59:55.180Z,21.74
2022-09-15T14:02:45.603Z,21.90
2022-09-15T14:05:34.994Z,21.92
2022-09-15T14:08:32.493Z,21.93
2022-09-15T14:11:27.995Z,22.20
2022-09-15T14:14:42.366Z,22.13
2022-09-15T14:17:31.661Z,22.47
2022-09-15T14:20:31.241Z,22.72
2022-09-15T14:23:18.540Z,22.92
2022-09-15T14:26:05.718Z,23.16
2022-09-15T14:29:00.005Z,23.31
2022-09-15T14:31:47.698Z,23.68
2022-09-15T14:34:37.315Z,23.81
2022-09-15T14:37:28.939Z,23.98
2022-09-15T14:40:35.540Z,24.31
2022-09-15T14:43:32.907Z,24.36
2022-09-15T14:46:21.019Z,24.32
2022-09-15T14:49:11.744Z,24.13
2022-09-15T14:52:01.172Z,24.27
2022-09-15T14:54:49.035Z,24.18
2022-09-15T14:57:40.949Z,24.24
2022-09-15T15:00:32.089Z,24.47
2022-09-15T15:03:27.619Z,24.62
2022-09-15T15:06:35.640Z,24.57
2022-09-15T15:09:47.004Z,24.53
2022-09-15T15:12:37.254Z,24.49
2022-09-15T15:15:24.632Z,24.42
2022-09-15T15:18:37.713Z,24.32
2022-09-15T15:21:42.011Z,24.51
2022-09-15T15:24:29.539Z,24.56
2022-09-15T15:27:38.068Z,24.74
2022-09-15T15:30:26.722Z,24.76
2022-09-15T15:33:20.151Z,24.90
2022-09-15T15:36:11.936Z,25.04
2022-09-15T15:39:01.832Z,25.04
2022-09-15T15:45:02.215Z,25.23
2022-09-15T15:47:49.229Z,25.25
2022-09-15T15:50:36.886Z,25.12
2022-09-15T15:53:24.293Z,25.18
2022-09-15T15:56:12.986Z,25.52
2022-09-15T15:59:00.297Z,25.23
2022-09-15T16:01:53.114Z,24.91
2022-09-15T16:04:40.132Z,24.69
2022-09-15T16:07:31.124Z,24.66
2022-09-15T16:10:23.493Z,24.65
2022-09-15T16:13:14.654Z,24.68
2022-09-15T16:16:02.523Z,24.62
2022-09-15T16:18:50.171Z,24.54
2022-09-15T16:21:42.112Z,24.50
2022-09-15T16:24:29.188Z,24.47
2022-09-15T16:27:17.913Z,24.43
2022-09-15T16:30:08.352Z,24.57
2022-09-15T16:32:55.524Z,24.91
2022-09-15T16:35:51.131Z,25.18
2022-09-15T16:38:38.389Z,25.32
2022-09-15T16:41:28.133Z,25.29
2022-09-15T16:44:18.914Z,25.21
2022-09-15T16:47:06.909Z,25.15
2022-09-15T16:49:53.797Z,25.06
2022-09-15T16:52:40.700Z,25.00
2022-09-15T16:55:31.303Z,24.17
2022-09-15T16:58:19.888Z,23.89
2022-09-15T17:01:07.630Z,23.92
2022-09-15T17:03:54.815Z,23.92
2022-09-15T17:06:42.274Z,23.92
2022-09-15T17:09:29.262Z,23.87
2022-09-15T17:12:16.209Z,23.57
2022-09-15T17:15:16.849Z,23.51
2022-09-15T17:18:04.207Z,23.43
2022-09-15T17:20:51.907Z,23.50
2022-09-15T17:23:40.956Z,23.44
2022-09-15T17:26:31.222Z,23.45
2022-09-15T17:29:18.606Z,23.25
2022-09-15T17:32:06.054Z,23.28
2022-09-15T17:34:53.085Z,23.32
2022-09-15T17:37:39.924Z,23.37
2022-09-15T17:40:27.410Z,23.42
2022-09-15T17:43:18.135Z,23.32
2022-09-15T17:46:05.205Z,23.30
2022-09-15T17:48:52.487Z,23.22
2022-09-15T17:51:39.463Z,23.14
2022-09-15T17:54:26.369Z,23.06
2022-09-15T17:57:13.326Z,23.10
2022-09-15T18:00:00.272Z,22.99
2022-09-15T18:02:53.114Z,22.85
2022-09-15T18:05:40.066Z,22.95
2022-09-15T18:08:27.577Z,22.91
2022-09-15T18:11:15.445Z,22.87
2022-09-15T18:14:02.415Z,22.65
2022-09-15T18:16:49.865Z,22.49
2022-09-15T18:19:36.807Z,22.47
2022-09-15T18:22:24.050Z,22.52
2022-09-15T18:25:16.722Z,22.54
2022-09-15T18:28:04.132Z,22.53
2022-09-15T18:30:51.179Z,22.66
2022-09-15T18:33:38.071Z,22.71
2022-09-15T18:36:24.990Z,22.72
2022-09-15T18:39:12.015Z,22.83
2022-09-15T18:41:59.243Z,22.71
2022-09-15T18:44:46.126Z,22.71
2022-09-15T18:47:33.277Z,22.70
2022-09-15T18:50:22.613Z,22.76
2022-09-15T18:53:09.945Z,22.57
2022-09-15T18:55:56.907Z,22.66
2022-09-15T18:58:43.850Z,22.42
2022-09-15T19:01:30.834Z,22.28
2022-09-15T19:04:18.013Z,22.39
2022-09-15T19:07:05.017Z,22.36
2022-09-15T19:09:56.385Z,22.09
2022-09-15T19:12:43.933Z,22.05
2022-09-15T19:15:33.763Z,22.15
2022-09-15T19:18:21.300Z,22.14
2022-09-15T19:21:10.864Z,22.22
2022-09-15T19:23:58.639Z,22.19
2022-09-15T19:26:47.212Z,22.00
2022-09-15T19:29:36.137Z,22.10
2022-09-15T19:32:23.238Z,22.18
2022-09-15T19:35:11.361Z,22.18
2022-09-15T19:37:58.462Z,22.22
2022-09-15T19:40:46.082Z,22.34
2022-09-15T19:43:35.362Z,22.33
2022-09-15T19:46:24.746Z,22.36
2022-09-15T19:49:12.080Z,22.29
2022-09-15T19:51:58.997Z,22.43
2022-09-15T19:54:47.633Z,22.21
2022-09-15T19:57:34.694Z,22.32
2022-09-15T20:00:21.726Z,22.43
2022-09-15T20:03:08.736Z,22.51
2022-09-15T20:05:57.919Z,22.13
2022-09-15T20:08:47.104Z,22.14
2022-09-15T20:11:35.159Z,22.22
2022-09-15T20:14:22.078Z,22.38
2022-09-15T20:17:09.050Z,22.48
2022-09-15T20:19:56.236Z,22.42
2022-09-15T20:22:43.150Z,22.39
2022-09-15T20:25:30.104Z,22.22
2022-09-15T20:28:17.442Z,22.26
2022-09-15T20:34:16.508Z,22.36
2022-09-15T20:37:03.412Z,22.31
2022-09-15T20:39:51.384Z,22.20
2022-09-15T20:42:38.417Z,22.28
2022-09-15T20:45:25.333Z,22.28
2022-09-15T20:48:12.282Z,22.21
2022-09-15T20:51:12.401Z,22.23
2022-09-15T20:54:01.698Z,22.24
2022-09-15T20:56:48.678Z,22.31
2022-09-15T20:59:36.849Z,22.27
2022-09-15T21:02:23.845Z,22.04
2022-09-15T21:05:10.902Z,22.19
2022-09-15T21:07:57.770Z,22.13
2022-09-15T21:10:45.554Z,21.91
2022-09-15T21:13:37.176Z,21.98
2022-09-15T21:16:27.114Z,22.07
2022-09-15T21:19:14.038Z,22.18
2022-09-15T21:22:01.680Z,22.13
2022-09-15T21:24:48.622Z,22.22
2022-09-15T21:27:35.720Z,22.10
2022-09-15T21:30:22.608Z,22.17
2022-09-15T21:33:09.858Z,22.09
2022-09-15T21:36:11.594Z,22.24
2022-09-15T21:38:59.499Z,22.23
2022-09-15T21:41:46.427Z,22.02
2022-09-15T21:44:33.303Z,22.13
2022-09-15T21:47:20.174Z,22.17
2022-09-15T21:50:07.599Z,22.13
2022-09-15T21:52:54.792Z,21.94
2022-09-15T21:55:42.828Z,21.94
2022-09-15T21:58:39.021Z,21.90
2022-09-15T22:01:31.914Z,21.94
2022-09-15T22:04:18.799Z,21.89
2022-09-15T22:07:06.107Z,21.78
2022-09-15T22:09:53.406Z,22.01
2022-09-15T22:12:40.248Z,22.00
2022-09-15T22:15:27.144Z,22.03
2022-09-15T22:18:13.971Z,21.81
2022-09-15T22:21:08.295Z,21.84
2022-09-15T22:23:56.929Z,21.83
2022-09-15T22:26:43.988Z,21.83
2022-09-15T22:29:30.810Z,21.33
2022-09-15T22:32:17.688Z,21.33
2022-09-15T22:35:05.796Z,21.34
2022-09-15T22:37:52.625Z,21.45
2022-09-15T22:40:39.457Z,21.47
2022-09-15T22:43:26.351Z,21.47
2022-09-15T22:46:14.111Z,21.21
2022-09-15T22:49:01.614Z,21.17
2022-09-15T22:51:48.489Z,21.05
2022-09-15T22:54:35.389Z,20.84
2022-09-15T22:57:22.253Z,20.87
2022-09-15T23:00:10.106Z,20.85
2022-09-15T23:02:56.930Z,20.84
2022-09-15T23:05:43.783Z,20.93
2022-09-15T23:08:30.992Z,21.05
2022-09-15T23:11:17.862Z,21.07
2022-09-15T23:14:04.728Z,21.11
2022-09-15T23:16:51.553Z,21.14
2022-09-15T23:19:38.372Z,20.69
2022-09-15T23:22:25.199Z,20.56
2022-09-15T23:25:12.025Z,20.49
2022-09-15T23:27:58.886Z,20.28
2022-09-15T23:30:45.857Z,20.01
2022-09-15T23:33:33.057Z,20.03
2022-09-15T23:36:19.924Z,19.91
2022-09-15T23:39:06.796Z,19.98
2022-09-15T23:41:53.801Z,19.96
2022-09-15T23:44:40.692Z,19.94
2022-09-15T23:47:27.570Z,19.98
2022-09-15T23:50:14.505Z,20.05
2022-09-15T23:53:01.401Z,20.07
2022-09-15T23:55:48.318Z,20.08
2022-09-15T23:58:35.176Z,20.37
